Time,TemperatureF,DewpointF,PressureIn,WindDirection,WindDirectionDegrees,WindSpeedMPH,WindSpeedGustMPH,Humidity,HourlyPrecipIn,Conditions,Clouds,dailyrainin,SoftwareType,DateUTC
2013-02-13 00:04:00,47.3,41.8,30.53,NNE,33,0.0,0.0,81,0.00,,,0.00,VWS V13.01,2013-02-13 08:04:00,
2013-02-13 00:09:00,47.1,41.6,30.53,NNE,33,0.0,0.0,81,0.00,,,0.00,VWS V13.01,2013-02-13 08:09:00,
2013-02-13 00:14:00,47.3,41.8,30.53,NNE,33,0.0,0.0,81,0.00,,,0.00,VWS V13.01,2013-02-13 08:14:00,
2013-02-13 00:19:00,47.3,41.8,30.53,NNE,33,0.0,0.0,81,0.00,,,0.00,VWS V13.01,2013-02-13 08:19:00,
2013-02-13 00:24:00,47.1,41.6,30.53,NNE,33,0.0,0.0,81,0.00,,,0.00,VWS V13.01,2013-02-13 08:24:00,
2013-02-13 00:29:00,47.1,41.6,30.53,NNE,33,0.0,0.0,81,0.00,,,0.00,VWS V13.01,2013-02-13 08:29:00,
2013-02-13 00:34:00,47.1,41.6,30.53,NNE,33,0.0,0.0,81,0.00,,,0.00,VWS V13.01,2013-02-13 08:34:00,
2013-02-13 00:39:00,47.1,41.6,30.53,NNE,33,0.0,0.0,81,0.00,,,0.00,VWS V13.01,2013-02-13 08:39:00,
2013-02-13 00:44:00,47.3,42.1,30.53,NNE,33,0.0,0.0,82,0.00,,,0.00,VWS V13.01,2013-02-13 08:44:00,
2013-02-13 00:49:00,47.3,42.1,30.53,NNE,33,0.0,0.0,82,0.00,,,0.00,VWS V13.01,2013-02-13 08:49:00,
2013-02-13 00:54:00,47.3,42.1,30.53,NNE,33,0.0,0.0,82,0.00,,,0.00,VWS V13.01,2013-02-13 08:54:00,
2013-02-13 00:59:00,47.3,42.1,30.53,NNE,33,0.0,0.0,82,0.00,,,0.00,VWS V13.01,2013-02-13 08:59:00,
2013-02-13 01:04:00,47.3,42.1,30.53,NNE,33,0.0,0.0,82,0.00,,,0.00,VWS V13.01,2013-02-13 09:04:00,
2013-02-13 01:09:00,47.3,42.1,30.53,NNE,33,0.0,0.0,82,0.00,,,0.00,VWS V13.01,2013-02-13 09:09:00,
2013-02-13 01:14:00,47.3,42.1,30.53,NNE,33,0.0,0.0,82,0.00,,,0.00,VWS V13.01,2013-02-13 09:14:00,
2013-02-13 01:19:00,47.3,42.1,30.50,NNE,33,0.0,0.0,82,0.00,,,0.00,VWS V13.01,2013-02-13 09:19:00,
2013-02-13 01:24:00,47.3,42.1,30.50,NNE,33,0.0,0.0,82,0.00,,,0.00,VWS V13.01,2013-02-13 09:24:00,
2013-02-13 01:29:00,47.3,42.1,30.50,NNE,33,0.0,0.0,82,0.00,,,0.00,VWS V13.01,2013-02-13 09:29:00,
2013-02-13 01:34:00,47.3,42.1,30.50,NNE,33,0.0,0.0,82,0.00,,,0.00,VWS V13.01,2013-02-13 09:34:00,
2013-02-13 01:39:00,47.3,42.1,30.50,NNE,33,0.0,0.0,82,0.00,,,0.00,VWS V13.01,2013-02-13 09:39:00,
2013-02-13 01:44:00,47.3,42.1,30.50,NNE,33,0.0,0.0,82,0.00,,,0.00,VWS V13.01,2013-02-13 09:44:00,
2013-02-13 01:49:00,47.5,42.3,30.50,NNE,33,0.0,0.0,82,0.00,,,0.00,VWS V13.01,2013-02-13 09:49:00,
2013-02-13 01:54:00,47.5,42.3,30.50,NNE,33,0.0,0.0,82,0.00,,,0.00,VWS V13.01,2013-02-13 09:54:00,
2013-02-13 01:59:00,47.5,42.3,30.50,NNE,33,0.0,0.0,82,0.00,,,0.00,VWS V13.01,2013-02-13 09:59:00,
2013-02-13 02:04:00,47.5,42.3,30.50,NNE,33,0.0,0.0,82,0.00,,,0.00,VWS V13.01,2013-02-13 10:04:00,
2013-02-13 02:09:00,47.5,42.3,30.50,NNE,33,0.0,0.0,82,0.00,,,0.00,VWS V13.01,2013-02-13 10:09:00,
2013-02-13 02:14:00,47.5,42.3,30.50,NNE,33,0.0,0.0,82,0.00,,,0.00,VWS V13.01,2013-02-13 10:14:00,
2013-02-13 02:19:00,47.5,42.3,30.50,NNE,33,0.0,0.0,82,0.00,,,0.00,VWS V13.01,2013-02-13 10:19:00,
2013-02-13 02:24:00,47.5,42.3,30.50,NNE,33,0.0,0.0,82,0.00,,,0.00,VWS V13.01,2013-02-13 10:24:00,
2013-02-13 02:29:00,47.5,42.6,30.50,NNE,33,0.0,0.0,83,0.00,,,0.00,VWS V13.01,2013-02-13 10:29:00,
2013-02-13 02:34:00,47.5,42.3,30.50,NNE,33,0.0,0.0,82,0.00,,,0.00,VWS V13.01,2013-02-13 10:34:00,
2013-02-13 02:39:00,47.5,42.6,30.50,NNE,33,0.0,0.0,83,0.00,,,0.00,VWS V13.01,2013-02-13 10:39:00,
2013-02-13 02:44:00,47.5,42.6,30.50,NNE,33,0.0,0.0,83,0.00,,,0.00,VWS V13.01,2013-02-13 10:44:00,
2013-02-13 02:49:00,47.5,42.6,30.50,NNE,33,0.0,0.0,83,0.00,,,0.00,VWS V13.01,2013-02-13 10:49:00,
2013-02-13 02:54:00,47.5,42.6,30.50,NNE,33,0.0,0.0,83,0.00,,,0.00,VWS V13.01,2013-02-13 10:54:00,
2013-02-13 02:59:00,47.5,42.6,30.50,NNE,33,0.0,0.0,83,0.00,,,0.00,VWS V13.01,2013-02-13 10:59:00,
2013-02-13 03:04:00,47.7,42.8,30.50,NNE,33,0.0,0.0,83,0.00,,,0.00,VWS V13.01,2013-02-13 11:04:00,
2013-02-13 03:09:00,47.7,42.8,30.50,NNE,33,0.0,0.0,83,0.00,,,0.00,VWS V13.01,2013-02-13 11:09:00,
2013-02-13 03:14:00,47.7,42.8,30.50,NNE,33,0.0,0.0,83,0.00,,,0.00,VWS V13.01,2013-02-13 11:14:00,
2013-02-13 03:19:00,47.7,42.8,30.50,NNE,33,0.0,0.0,83,0.00,,,0.00,VWS V13.01,2013-02-13 11:19:00,
2013-02-13 03:24:00,47.7,42.8,30.50,NNE,33,0.0,0.0,83,0.00,,,0.00,VWS V13.01,2013-02-13 11:24:00,
2013-02-13 03:29:00,47.5,42.6,30.50,NNE,33,0.0,0.0,83,0.00,,,0.00,VWS V13.01,2013-02-13 11:29:00,
2013-02-13 03:34:00,47.7,42.8,30.50,NNE,33,0.0,0.0,83,0.00,,,0.00,VWS V13.01,2013-02-13 11:34:00,
2013-02-13 03:39:00,47.7,42.8,30.50,NNE,33,0.0,0.0,83,0.00,,,0.00,VWS V13.01,2013-02-13 11:39:00,
2013-02-13 03:44:00,47.7,42.8,30.50,NNE,33,0.0,0.0,83,0.00,,,0.00,VWS V13.01,2013-02-13 11:44:00,
2013-02-13 03:49:00,47.7,42.8,30.50,NNE,33,0.0,0.0,83,0.00,,,0.00,VWS V13.01,2013-02-13 11:49:00,
2013-02-13 03:54:00,47.7,43.1,30.50,NNE,33,0.0,0.0,84,0.00,,,0.00,VWS V13.01,2013-02-13 11:54:00,
2013-02-13 03:59:00,47.7,43.1,30.50,NNE,33,0.0,0.0,84,0.00,,,0.00,VWS V13.01,2013-02-13 11:59:00,
2013-02-13 04:04:00,47.7,43.1,30.50,NNE,33,0.0,0.0,84,0.00,,,0.00,VWS V13.01,2013-02-13 12:04:00,
2013-02-13 04:09:00,47.7,43.1,30.50,NNE,33,0.0,0.0,84,0.00,,,0.00,VWS V13.01,2013-02-13 12:09:00,
2013-02-13 04:14:00,47.7,43.1,30.50,NNE,33,0.0,0.0,84,0.00,,,0.00,VWS V13.01,2013-02-13 12:14:00,
2013-02-13 04:19:00,47.7,43.1,30.50,NNE,33,0.0,0.0,84,0.00,,,0.00,VWS V13.01,2013-02-13 12:19:00,
2013-02-13 04:24:00,47.7,43.1,30.50,NNE,33,0.0,0.0,84,0.00,,,0.00,VWS V13.01,2013-02-13 12:24:00,
2013-02-13 04:29:00,47.7,43.1,30.50,NNE,33,0.0,0.0,84,0.00,,,0.00,VWS V13.01,2013-02-13 12:29:00,
2013-02-13 04:34:00,47.7,43.1,30.50,NNE,33,0.0,0.0,84,0.00,,,0.00,VWS V13.01,2013-02-13 12:34:00,
2013-02-13 04:39:00,47.7,43.1,30.50,NNE,33,0.0,0.0,84,0.00,,,0.00,VWS V13.01,2013-02-13 12:39:00,
2013-02-13 04:44:00,47.7,43.1,30.50,NNE,33,0.0,0.0,84,0.00,,,0.00,VWS V13.01,2013-02-13 12:44:00,
2013-02-13 04:49:00,47.7,43.1,30.50,NNE,33,0.0,0.0,84,0.00,,,0.00,VWS V13.01,2013-02-13 12:49:00,
2013-02-13 04:54:00,47.7,43.1,30.50,NNE,33,0.0,0.0,84,0.00,,,0.00,VWS V13.01,2013-02-13 12:54:00,
2013-02-13 04:59:00,47.8,43.2,30.50,NNE,33,3.1,3.6,84,0.00,,,0.00,VWS V13.01,2013-02-13 12:59:00,
2013-02-13 05:04:00,47.8,43.6,30.50,NNE,33,0.0,2.2,85,0.00,,,0.00,VWS V13.01,2013-02-13 13:04:00,
2013-02-13 05:09:00,48.0,43.7,30.50,North,357,3.6,4.9,85,0.00,,,0.00,VWS V13.01,2013-02-13 13:09:00,
2013-02-13 05:14:00,48.0,43.7,30.50,North,7,2.2,2.7,85,0.00,,,0.00,VWS V13.01,2013-02-13 13:14:00,
2013-02-13 05:19:00,48.0,43.7,30.50,North,7,0.0,2.2,85,0.00,,,0.00,VWS V13.01,2013-02-13 13:19:00,
2013-02-13 05:24:00,47.8,43.6,30.50,North,7,0.0,0.0,85,0.00,,,0.00,VWS V13.01,2013-02-13 13:24:00,
2013-02-13 05:29:00,47.8,43.6,30.50,North,7,0.0,0.0,85,0.00,,,0.00,VWS V13.01,2013-02-13 13:29:00,
2013-02-13 05:34:00,47.8,43.6,30.50,North,7,0.0,0.0,85,0.00,,,0.00,VWS V13.01,2013-02-13 13:34:00,
2013-02-13 05:39:00,47.8,43.6,30.50,NW,315,0.0,0.0,85,0.00,,,0.00,VWS V13.01,2013-02-13 13:39:00,
2013-02-13 05:44:00,47.8,43.6,30.50,NW,315,0.0,0.0,85,0.00,,,0.00,VWS V13.01,2013-02-13 13:44:00,
2013-02-13 05:49:00,47.8,43.6,30.50,NW,315,0.0,0.0,85,0.00,,,0.00,VWS V13.01,2013-02-13 13:49:00,
2013-02-13 05:54:00,47.8,43.6,30.50,NW,315,0.0,0.0,85,0.00,,,0.00,VWS V13.01,2013-02-13 13:54:00,
2013-02-13 05:59:00,47.8,43.6,30.50,NW,315,0.0,0.0,85,0.00,,,0.00,VWS V13.01,2013-02-13 13:59:00,
2013-02-13 06:04:00,47.8,43.6,30.50,NW,315,0.0,0.0,85,0.00,,,0.00,VWS V13.01,2013-02-13 14:04:00,
2013-02-13 06:09:00,47.8,43.6,30.50,NW,315,0.0,0.0,85,0.00,,,0.00,VWS V13.01,2013-02-13 14:09:00,
2013-02-13 06:14:00,47.8,43.6,30.50,NW,315,0.0,0.0,85,0.00,,,0.00,VWS V13.01,2013-02-13 14:14:00,
2013-02-13 06:19:00,47.8,43.6,30.50,NW,315,0.0,0.0,85,0.00,,,0.00,VWS V13.01,2013-02-13 14:19:00,
2013-02-13 06:24:00,47.8,43.6,30.50,NW,315,0.0,0.0,85,0.00,,,0.00,VWS V13.01,2013-02-13 14:24:00,
2013-02-13 06:29:00,47.8,43.9,30.50,NW,315,0.0,0.0,86,0.00,,,0.00,VWS V13.01,2013-02-13 14:29:00,
2013-02-13 06:34:00,47.8,43.6,30.50,NW,315,0.0,0.0,85,0.00,,,0.00,VWS V13.01,2013-02-13 14:34:00,
2013-02-13 06:39:00,47.7,43.4,30.50,NW,315,0.0,0.0,85,0.00,,,0.00,VWS V13.01,2013-02-13 14:39:00,
2013-02-13 06:44:00,47.7,43.4,30.50,NW,315,0.0,0.0,85,0.00,,,0.00,VWS V13.01,2013-02-13 14:44:00,
2013-02-13 06:49:00,47.7,43.4,30.50,NW,315,0.0,0.0,85,0.00,,,0.00,VWS V13.01,2013-02-13 14:49:00,
2013-02-13 06:54:00,47.7,43.4,30.50,NW,315,0.0,0.0,85,0.00,,,0.00,VWS V13.01,2013-02-13 14:54:00,
2013-02-13 06:59:00,47.7,43.7,30.50,NW,315,0.0,0.0,86,0.00,,,0.00,VWS V13.01,2013-02-13 14:59:00,
2013-02-13 07:04:00,47.7,43.7,30.50,NW,315,0.0,0.0,86,0.00,,,0.00,VWS V13.01,2013-02-13 15:04:00,
2013-02-13 07:09:00,47.7,43.7,30.50,NW,315,0.0,0.0,86,0.00,,,0.00,VWS V13.01,2013-02-13 15:09:00,
2013-02-13 07:14:00,47.7,43.7,30.50,NW,315,0.0,0.0,86,0.00,,,0.00,VWS V13.01,2013-02-13 15:14:00,
2013-02-13 07:19:00,47.7,43.7,30.50,NW,315,0.0,0.0,86,0.00,,,0.00,VWS V13.01,2013-02-13 15:19:00,
2013-02-13 07:24:00,47.7,43.7,30.50,NW,315,0.0,0.0,86,0.00,,,0.00,VWS V13.01,2013-02-13 15:24:00,
2013-02-13 07:29:00,47.7,43.7,30.50,NW,315,0.0,0.0,86,0.00,,,0.00,VWS V13.01,2013-02-13 15:29:00,
2013-02-13 07:34:00,47.7,43.7,30.50,NW,315,0.0,0.0,86,0.00,,,0.00,VWS V13.01,2013-02-13 15:34:00,
2013-02-13 07:39:00,47.7,43.7,30.50,NW,315,0.0,0.0,86,0.00,,,0.00,VWS V13.01,2013-02-13 15:39:00,
2013-02-13 07:44:00,47.7,43.7,30.50,NW,315,0.0,0.0,86,0.00,,,0.00,VWS V13.01,2013-02-13 15:44:00,
2013-02-13 07:49:00,47.7,43.7,30.50,NW,315,0.0,0.0,86,0.00,,,0.00,VWS V13.01,2013-02-13 15:49:00,
2013-02-13 07:54:00,47.7,43.7,30.50,NW,315,0.0,0.0,86,0.00,,,0.00,VWS V13.01,2013-02-13 15:54:00,
2013-02-13 07:59:00,47.8,43.9,30.50,NW,315,0.0,0.0,86,0.00,,,0.00,VWS V13.01,2013-02-13 15:59:00,
2013-02-13 08:04:00,47.7,43.7,30.50,NW,315,0.0,0.0,86,0.00,,,0.00,VWS V13.01,2013-02-13 16:04:00,
2013-02-13 08:09:00,47.7,43.7,30.50,NW,315,0.0,0.0,86,0.00,,,0.00,VWS V13.01,2013-02-13 16:09:00,
2013-02-13 08:14:00,47.8,43.9,30.50,NW,315,0.0,0.0,86,0.00,,,0.00,VWS V13.01,2013-02-13 16:14:00,
2013-02-13 08:19:00,47.8,43.9,30.50,NW,315,0.0,0.0,86,0.00,,,0.00,VWS V13.01,2013-02-13 16:19:00,
2013-02-13 08:24:00,48.0,44.0,30.50,NW,315,0.0,0.0,86,0.00,,,0.00,VWS V13.01,2013-02-13 16:24:00,
2013-02-13 08:29:00,48.0,44.0,30.50,NW,315,0.0,0.0,86,0.00,,,0.00,VWS V13.01,2013-02-13 16:29:00,
2013-02-13 08:34:00,48.2,44.2,30.50,NW,315,0.0,0.0,86,0.00,,,0.00,VWS V13.01,2013-02-13 16:34:00,
2013-02-13 08:39:00,48.2,44.2,30.50,NW,315,0.0,0.0,86,0.00,,,0.00,VWS V13.01,2013-02-13 16:39:00,
2013-02-13 08:44:00,48.4,44.4,30.50,NW,315,0.0,0.0,86,0.00,,,0.00,VWS V13.01,2013-02-13 16:44:00,
2013-02-13 08:49:00,48.6,44.6,30.50,NW,315,0.0,0.0,86,0.00,,,0.00,VWS V13.01,2013-02-13 16:49:00,
2013-02-13 08:54:00,48.7,45.0,30.50,NW,315,0.0,0.0,87,0.00,,,0.00,VWS V13.01,2013-02-13 16:54:00,
2013-02-13 08:59:00,48.9,45.2,30.50,NW,315,0.0,0.0,87,0.00,,,0.00,VWS V13.01,2013-02-13 16:59:00,
2013-02-13 09:04:00,49.3,45.6,30.50,NW,315,0.0,0.0,87,0.00,,,0.00,VWS V13.01,2013-02-13 17:04:00,
2013-02-13 09:09:00,49.5,45.8,30.50,NW,315,0.0,0.0,87,0.00,,,0.00,VWS V13.01,2013-02-13 17:09:00,
2013-02-13 09:14:00,49.6,46.2,30.50,NW,315,0.0,0.0,88,0.00,,,0.00,VWS V13.01,2013-02-13 17:14:00,
2013-02-13 09:19:00,49.6,46.2,30.50,NW,315,0.0,0.0,88,0.00,,,0.00,VWS V13.01,2013-02-13 17:19:00,
2013-02-13 09:24:00,49.6,46.2,30.50,NW,315,0.0,0.0,88,0.00,,,0.00,VWS V13.01,2013-02-13 17:24:00,
2013-02-13 09:29:00,49.6,46.2,30.50,NW,315,0.0,0.0,88,0.00,,,0.00,VWS V13.01,2013-02-13 17:29:00,
2013-02-13 09:34:00,50.0,46.6,30.50,NW,315,0.0,0.0,88,0.00,,,0.00,VWS V13.01,2013-02-13 17:34:00,
2013-02-13 09:39:00,50.0,46.6,30.53,NW,315,2.7,2.7,88,0.00,,,0.00,VWS V13.01,2013-02-13 17:39:00,
2013-02-13 09:44:00,50.0,46.3,30.53,NW,315,0.0,0.0,87,0.00,,,0.00,VWS V13.01,2013-02-13 17:44:00,
2013-02-13 09:49:00,50.2,46.8,30.53,NW,315,2.2,2.2,88,0.00,,,0.00,VWS V13.01,2013-02-13 17:49:00,
2013-02-13 09:54:00,50.2,46.5,30.53,NW,315,3.6,4.0,87,0.00,,,0.00,VWS V13.01,2013-02-13 17:54:00,
2013-02-13 09:59:00,50.0,46.0,30.53,WNW,299,3.1,4.9,86,0.00,,,0.00,VWS V13.01,2013-02-13 17:59:00,
2013-02-13 10:04:00,50.0,45.7,30.53,WNW,299,3.1,3.1,85,0.00,,,0.00,VWS V13.01,2013-02-13 18:04:00,
2013-02-13 10:09:00,50.0,45.7,30.53,WNW,299,3.1,3.1,85,0.00,,,0.00,VWS V13.01,2013-02-13 18:09:00,
2013-02-13 10:14:00,50.2,45.8,30.53,WNW,299,2.7,2.7,85,0.00,,,0.00,VWS V13.01,2013-02-13 18:14:00,
2013-02-13 10:19:00,50.2,45.5,30.53,WNW,283,4.0,5.8,84,0.00,,,0.00,VWS V13.01,2013-02-13 18:19:00,
2013-02-13 10:24:00,50.4,45.7,30.53,WNW,284,3.6,4.9,84,0.00,,,0.00,VWS V13.01,2013-02-13 18:24:00,
2013-02-13 10:29:00,50.4,45.4,30.53,WNW,299,4.9,6.3,83,0.00,,,0.00,VWS V13.01,2013-02-13 18:29:00,
2013-02-13 10:34:00,50.5,45.6,30.53,West,279,2.2,2.2,83,0.00,,,0.00,VWS V13.01,2013-02-13 18:34:00,
2013-02-13 10:39:00,50.7,45.4,30.53,WNW,303,5.4,5.8,82,0.00,,,0.00,VWS V13.01,2013-02-13 18:39:00,
2013-02-13 10:44:00,50.7,45.1,30.53,West,268,2.7,2.7,81,0.00,,,0.00,VWS V13.01,2013-02-13 18:44:00,
2013-02-13 10:49:00,51.1,45.5,30.53,WSW,246,2.2,4.0,81,0.00,,,0.00,VWS V13.01,2013-02-13 18:49:00,
2013-02-13 10:54:00,50.9,44.3,30.53,WNW,303,3.1,3.1,78,0.00,,,0.00,VWS V13.01,2013-02-13 18:54:00,
2013-02-13 10:59:00,51.3,45.0,30.53,West,279,3.6,3.6,79,0.00,,,0.00,VWS V13.01,2013-02-13 18:59:00,
2013-02-13 11:04:00,51.1,44.5,30.53,WNW,285,0.0,0.0,78,0.00,,,0.00,VWS V13.01,2013-02-13 19:04:00,
2013-02-13 11:09:00,51.1,44.5,30.53,WNW,294,0.0,0.0,78,0.00,,,0.00,VWS V13.01,2013-02-13 19:09:00,
2013-02-13 11:14:00,51.1,44.5,30.53,WNW,285,5.4,5.4,78,0.00,,,0.00,VWS V13.01,2013-02-13 19:14:00,
2013-02-13 11:19:00,51.1,43.8,30.53,WNW,286,2.7,3.1,76,0.00,,,0.00,VWS V13.01,2013-02-13 19:19:00,
2013-02-13 11:24:00,50.9,43.6,30.53,West,279,4.9,4.9,76,0.00,,,0.00,VWS V13.01,2013-02-13 19:24:00,
2013-02-13 11:29:00,51.3,44.0,30.53,West,280,2.7,3.6,76,0.00,,,0.00,VWS V13.01,2013-02-13 19:29:00,
2013-02-13 11:34:00,50.9,43.3,30.53,NW,304,5.8,6.3,75,0.00,,,0.00,VWS V13.01,2013-02-13 19:34:00,
2013-02-13 11:39:00,50.9,43.3,30.53,West,277,5.4,5.4,75,0.00,,,0.00,VWS V13.01,2013-02-13 19:39:00,
2013-02-13 11:44:00,50.7,42.8,30.53,NW,306,5.8,5.8,74,0.00,,,0.00,VWS V13.01,2013-02-13 19:44:00,
2013-02-13 11:49:00,50.5,42.2,30.53,WNW,299,5.4,5.4,73,0.00,,,0.00,VWS V13.01,2013-02-13 19:49:00,
2013-02-13 11:54:00,50.7,42.4,30.53,WNW,299,3.6,4.9,73,0.00,,,0.00,VWS V13.01,2013-02-13 19:54:00,
2013-02-13 11:59:00,51.1,43.1,30.53,NW,313,4.5,5.8,74,0.00,,,0.00,VWS V13.01,2013-02-13 19:59:00,
2013-02-13 12:04:00,51.1,43.1,30.53,WNW,301,5.8,5.8,74,0.00,,,0.00,VWS V13.01,2013-02-13 20:04:00,
2013-02-13 12:09:00,51.3,43.6,30.53,NW,305,4.0,4.9,75,0.00,,,0.00,VWS V13.01,2013-02-13 20:09:00,
2013-02-13 12:14:00,51.4,43.4,30.53,WNW,297,6.3,6.3,74,0.00,,,0.00,VWS V13.01,2013-02-13 20:14:00,
2013-02-13 12:19:00,51.6,44.0,30.53,WNW,301,0.0,0.0,75,0.00,,,0.00,VWS V13.01,2013-02-13 20:19:00,
2013-02-13 12:24:00,51.6,44.0,30.50,NW,312,5.8,5.8,75,0.00,,,0.00,VWS V13.01,2013-02-13 20:24:00,
2013-02-13 12:29:00,52.2,44.1,30.50,West,265,4.0,5.8,74,0.00,,,0.00,VWS V13.01,2013-02-13 20:29:00,
2013-02-13 12:34:00,52.3,44.0,30.50,West,277,5.8,5.8,73,0.00,,,0.00,VWS V13.01,2013-02-13 20:34:00,
2013-02-13 12:39:00,52.3,43.6,30.50,WNW,298,2.7,3.6,72,0.00,,,0.00,VWS V13.01,2013-02-13 20:39:00,
2013-02-13 12:44:00,52.2,42.3,30.50,NW,320,2.2,3.6,69,0.00,,,0.00,VWS V13.01,2013-02-13 20:44:00,
2013-02-13 12:49:00,52.3,42.1,30.50,WNW,284,4.9,5.8,68,0.00,,,0.00,VWS V13.01,2013-02-13 20:49:00,
2013-02-13 12:54:00,52.3,42.1,30.50,WNW,303,2.2,5.4,68,0.00,,,0.00,VWS V13.01,2013-02-13 20:54:00,
2013-02-13 12:59:00,52.0,40.2,30.50,NW,312,3.1,4.0,64,0.00,,,0.00,VWS V13.01,2013-02-13 20:59:00,
2013-02-13 13:04:00,51.8,39.6,30.50,NW,321,0.0,3.6,63,0.00,,,0.00,VWS V13.01,2013-02-13 21:04:00,
2013-02-13 13:09:00,51.6,39.0,30.50,North,2,4.0,4.9,62,0.00,,,0.00,VWS V13.01,2013-02-13 21:09:00,
2013-02-13 13:14:00,51.8,38.8,30.50,WNW,299,4.0,4.0,61,0.00,,,0.00,VWS V13.01,2013-02-13 21:14:00,
2013-02-13 13:19:00,51.8,39.2,30.50,NW,309,4.0,4.0,62,0.00,,,0.00,VWS V13.01,2013-02-13 21:19:00,
2013-02-13 13:24:00,52.0,39.4,30.50,WNW,300,5.8,6.7,62,0.00,,,0.00,VWS V13.01,2013-02-13 21:24:00,
2013-02-13 13:29:00,51.8,38.4,30.50,NW,323,2.7,5.4,60,0.00,,,0.00,VWS V13.01,2013-02-13 21:29:00,
2013-02-13 13:34:00,52.0,38.5,30.50,WNW,298,3.6,4.0,60,0.00,,,0.00,VWS V13.01,2013-02-13 21:34:00,
2013-02-13 13:39:00,52.5,39.5,30.50,WNW,292,2.7,3.6,61,0.00,,,0.00,VWS V13.01,2013-02-13 21:39:00,
2013-02-13 13:43:00,52.9,39.8,30.50,NW,315,2.7,3.1,61,0.00,,,0.00,VWS V13.01,2013-02-13 21:43:00,
2013-02-13 13:48:00,53.2,40.2,30.50,NW,315,0.0,0.0,61,0.00,,,0.00,VWS V13.01,2013-02-13 21:48:00,
2013-02-13 13:53:00,53.1,37.8,30.50,NNW,343,2.7,4.0,56,0.00,,,0.00,VWS V13.01,2013-02-13 21:53:00,
2013-02-13 13:58:00,53.2,35.1,30.50,NNE,20,2.7,4.9,50,0.00,,,0.00,VWS V13.01,2013-02-13 21:58:00,
2013-02-13 14:03:00,53.4,34.8,30.50,NNE,20,3.6,4.0,49,0.00,,,0.00,VWS V13.01,2013-02-13 22:03:00,
2013-02-13 14:08:00,53.4,34.2,30.50,NNE,20,3.1,3.6,48,0.00,,,0.00,VWS V13.01,2013-02-13 22:08:00,
2013-02-13 14:13:00,54.0,34.7,30.50,NW,324,3.1,3.1,48,0.00,,,0.00,VWS V13.01,2013-02-13 22:13:00,
2013-02-13 14:18:00,54.7,35.4,30.50,NNE,23,3.6,4.0,48,0.00,,,0.00,VWS V13.01,2013-02-13 22:18:00,
2013-02-13 14:23:00,54.5,33.0,30.50,NNW,340,4.9,4.9,44,0.00,,,0.00,VWS V13.01,2013-02-13 22:23:00,
2013-02-13 14:28:00,54.3,31.7,30.50,North,8,4.9,4.9,42,0.00,,,0.00,VWS V13.01,2013-02-13 22:28:00,
2013-02-13 14:33:00,54.1,31.0,30.50,NNE,15,2.7,4.0,41,0.00,,,0.00,VWS V13.01,2013-02-13 22:33:00,
2013-02-13 14:38:00,54.5,31.9,30.50,NNE,13,2.2,3.1,42,0.00,,,0.00,VWS V13.01,2013-02-13 22:38:00,
2013-02-13 14:43:00,55.0,31.2,30.50,NE,34,3.6,3.6,40,0.00,,,0.00,VWS V13.01,2013-02-13 22:43:00,
2013-02-13 14:48:00,55.4,30.9,30.50,NNE,28,4.0,4.0,39,0.00,,,0.00,VWS V13.01,2013-02-13 22:48:00,
2013-02-13 14:53:00,56.3,31.7,30.50,NNE,26,0.0,0.0,39,0.00,,,0.00,VWS V13.01,2013-02-13 22:53:00,
2013-02-13 14:58:00,56.5,30.5,30.50,NNE,26,3.6,4.0,37,0.00,,,0.00,VWS V13.01,2013-02-13 22:58:00,
2013-02-13 15:03:00,56.5,30.5,30.50,North,357,2.7,2.7,37,0.00,,,0.00,VWS V13.01,2013-02-13 23:03:00,
2013-02-13 15:08:00,57.2,31.2,30.50,North,357,2.7,3.1,37,0.00,,,0.00,VWS V13.01,2013-02-13 23:08:00,
2013-02-13 15:13:00,57.4,30.7,30.50,North,1,3.6,4.0,36,0.00,,,0.00,VWS V13.01,2013-02-13 23:13:00,
2013-02-13 15:18:00,57.0,30.4,30.50,NW,318,5.4,5.4,36,0.00,,,0.00,VWS V13.01,2013-02-13 23:18:00,
2013-02-13 15:23:00,56.8,30.2,30.50,NNW,327,4.0,5.8,36,0.00,,,0.00,VWS V13.01,2013-02-13 23:23:00,
2013-02-13 15:28:00,55.8,29.9,30.50,North,8,5.4,5.4,37,0.00,,,0.00,VWS V13.01,2013-02-13 23:28:00,
2013-02-13 15:33:00,55.0,29.9,30.50,NNW,338,5.4,5.8,38,0.00,,,0.00,VWS V13.01,2013-02-13 23:33:00,
2013-02-13 15:38:00,54.1,29.8,30.50,North,357,5.4,5.8,39,0.00,,,0.00,VWS V13.01,2013-02-13 23:38:00,
2013-02-13 15:43:00,53.8,29.4,30.50,NNW,330,4.0,5.4,39,0.00,,,0.00,VWS V13.01,2013-02-13 23:43:00,
2013-02-13 15:48:00,53.4,29.7,30.50,North,10,5.8,6.3,40,0.00,,,0.00,VWS V13.01,2013-02-13 23:48:00,
2013-02-13 15:53:00,52.7,30.3,30.50,NNW,339,5.4,5.4,42,0.00,,,0.00,VWS V13.01,2013-02-13 23:53:00,
2013-02-13 15:58:00,52.3,31.1,30.50,NNE,23,3.6,6.3,44,0.00,,,0.00,VWS V13.01,2013-02-13 23:58:00,
2013-02-13 16:03:00,52.2,31.5,30.50,North,11,3.6,3.6,45,0.00,,,0.00,VWS V13.01,2013-02-14 00:03:00,
2013-02-13 16:08:00,52.0,31.3,30.50,NNW,332,2.7,4.0,45,0.00,,,0.00,VWS V13.01,2013-02-14 00:08:00,
2013-02-13 16:13:00,51.8,31.7,30.50,NE,34,3.6,4.9,46,0.00,,,0.00,VWS V13.01,2013-02-14 00:13:00,
2013-02-13 16:18:00,51.6,32.1,30.50,North,6,2.2,3.6,47,0.00,,,0.00,VWS V13.01,2013-02-14 00:18:00,
2013-02-13 16:23:00,51.4,31.9,30.50,NE,38,5.8,5.8,47,0.00,,,0.00,VWS V13.01,2013-02-14 00:23:00,
2013-02-13 16:28:00,51.1,31.6,30.50,NNE,27,3.6,4.0,47,0.00,,,0.00,VWS V13.01,2013-02-14 00:28:00,
2013-02-13 16:33:00,51.1,31.6,30.50,NE,34,2.7,4.0,47,0.00,,,0.00,VWS V13.01,2013-02-14 00:33:00,
2013-02-13 16:38:00,50.9,31.4,30.50,NE,34,4.0,5.8,47,0.00,,,0.00,VWS V13.01,2013-02-14 00:38:00,
2013-02-13 16:43:00,50.9,31.4,30.50,NE,34,3.1,3.6,47,0.00,,,0.00,VWS V13.01,2013-02-14 00:43:00,
2013-02-13 16:48:00,50.9,31.9,30.50,NE,34,2.7,4.0,48,0.00,,,0.00,VWS V13.01,2013-02-14 00:48:00,
2013-02-13 16:53:00,50.7,31.8,30.50,North,353,3.1,4.0,48,0.00,,,0.00,VWS V13.01,2013-02-14 00:53:00,
2013-02-13 16:58:00,50.5,31.6,30.50,NW,321,0.0,3.1,48,0.00,,,0.00,VWS V13.01,2013-02-14 00:58:00,
2013-02-13 17:03:00,50.5,31.6,30.50,NW,321,2.7,3.6,48,0.00,,,0.00,VWS V13.01,2013-02-14 01:03:00,
2013-02-13 17:08:00,50.5,31.6,30.50,WNW,293,2.2,2.7,48,0.00,,,0.00,VWS V13.01,2013-02-14 01:08:00,
2013-02-13 17:13:00,50.4,31.4,30.50,WNW,293,0.0,0.0,48,0.00,,,0.00,VWS V13.01,2013-02-14 01:13:00,
2013-02-13 17:18:00,50.4,32.4,30.50,NNE,16,2.2,4.0,50,0.00,,,0.00,VWS V13.01,2013-02-14 01:18:00,
2013-02-13 17:23:00,50.0,32.6,30.47,NE,42,2.2,2.7,51,0.00,,,0.00,VWS V13.01,2013-02-14 01:23:00,
2013-02-13 17:28:00,50.0,32.6,30.47,NE,42,0.0,0.0,51,0.00,,,0.00,VWS V13.01,2013-02-14 01:28:00,
2013-02-13 17:33:00,50.0,32.6,30.47,NE,42,0.0,2.2,51,0.00,,,0.00,VWS V13.01,2013-02-14 01:33:00,
2013-02-13 17:38:00,49.8,32.9,30.50,NE,42,0.0,0.0,52,0.00,,,0.00,VWS V13.01,2013-02-14 01:38:00,
2013-02-13 17:43:00,50.0,33.1,30.50,NE,42,0.0,0.0,52,0.00,,,0.00,VWS V13.01,2013-02-14 01:43:00,
2013-02-13 17:48:00,50.0,33.1,30.50,NE,41,0.0,2.2,52,0.00,,,0.00,VWS V13.01,2013-02-14 01:48:00,
2013-02-13 17:53:00,50.0,33.1,30.50,NE,41,0.0,0.0,52,0.00,,,0.00,VWS V13.01,2013-02-14 01:53:00,
2013-02-13 17:58:00,49.8,32.9,30.50,NE,42,0.0,0.0,52,0.00,,,0.00,VWS V13.01,2013-02-14 01:58:00,
2013-02-13 18:03:00,50.0,33.1,30.50,NE,41,0.0,0.0,52,0.00,,,0.00,VWS V13.01,2013-02-14 02:03:00,
2013-02-13 18:08:00,50.0,33.1,30.50,NE,42,0.0,0.0,52,0.00,,,0.00,VWS V13.01,2013-02-14 02:08:00,
2013-02-13 18:13:00,49.8,32.9,30.50,NE,42,2.7,3.6,52,0.00,,,0.00,VWS V13.01,2013-02-14 02:13:00,
2013-02-13 18:18:00,49.5,33.1,30.50,NE,42,0.0,0.0,53,0.00,,,0.00,VWS V13.01,2013-02-14 02:18:00,
2013-02-13 18:23:00,49.5,33.1,30.50,NE,41,0.0,0.0,53,0.00,,,0.00,VWS V13.01,2013-02-14 02:23:00,
2013-02-13 18:28:00,49.3,32.9,30.50,NE,42,0.0,0.0,53,0.00,,,0.00,VWS V13.01,2013-02-14 02:28:00,
2013-02-13 18:33:00,49.3,32.9,30.50,NE,41,0.0,0.0,53,0.00,,,0.00,VWS V13.01,2013-02-14 02:33:00,
2013-02-13 18:38:00,49.3,32.9,30.50,NE,42,0.0,0.0,53,0.00,,,0.00,VWS V13.01,2013-02-14 02:38:00,
2013-02-13 18:43:00,49.3,32.9,30.50,NE,42,0.0,0.0,53,0.00,,,0.00,VWS V13.01,2013-02-14 02:43:00,
2013-02-13 18:48:00,49.3,33.4,30.50,NE,42,0.0,0.0,54,0.00,,,0.00,VWS V13.01,2013-02-14 02:48:00,
2013-02-13 18:53:00,49.3,33.4,30.50,NE,42,0.0,0.0,54,0.00,,,0.00,VWS V13.01,2013-02-14 02:53:00,
2013-02-13 18:58:00,49.3,33.4,30.50,NE,42,0.0,0.0,54,0.00,,,0.00,VWS V13.01,2013-02-14 02:58:00,
2013-02-13 19:03:00,49.1,33.2,30.50,NE,42,0.0,0.0,54,0.00,,,0.00,VWS V13.01,2013-02-14 03:03:00,
2013-02-13 19:08:00,48.9,33.0,30.50,NE,41,0.0,0.0,54,0.00,,,0.00,VWS V13.01,2013-02-14 03:08:00,
2013-02-13 19:13:00,48.9,33.0,30.50,NE,42,0.0,0.0,54,0.00,,,0.00,VWS V13.01,2013-02-14 03:13:00,
2013-02-13 19:18:00,48.9,33.5,30.50,NE,42,0.0,0.0,55,0.00,,,0.00,VWS V13.01,2013-02-14 03:18:00,
2013-02-13 19:23:00,48.7,33.3,30.50,NE,41,0.0,0.0,55,0.00,,,0.00,VWS V13.01,2013-02-14 03:23:00,
2013-02-13 19:28:00,48.7,33.3,30.50,NE,42,0.0,0.0,55,0.00,,,0.00,VWS V13.01,2013-02-14 03:28:00,
2013-02-13 19:33:00,48.7,33.8,30.50,NE,41,0.0,0.0,56,0.00,,,0.00,VWS V13.01,2013-02-14 03:33:00,
2013-02-13 19:38:00,48.7,34.2,30.50,NE,42,0.0,0.0,57,0.00,,,0.00,VWS V13.01,2013-02-14 03:38:00,
2013-02-13 19:43:00,48.7,34.2,30.50,NE,41,0.0,0.0,57,0.00,,,0.00,VWS V13.01,2013-02-14 03:43:00,
2013-02-13 19:48:00,48.6,34.0,30.50,NE,41,0.0,0.0,57,0.00,,,0.00,VWS V13.01,2013-02-14 03:48:00,
2013-02-13 19:53:00,48.4,33.9,30.50,NE,42,0.0,0.0,57,0.00,,,0.00,VWS V13.01,2013-02-14 03:53:00,
2013-02-13 19:58:00,48.4,34.3,30.50,NE,41,0.0,0.0,58,0.00,,,0.00,VWS V13.01,2013-02-14 03:58:00,
2013-02-13 20:03:00,48.2,34.1,30.50,NE,42,0.0,0.0,58,0.00,,,0.00,VWS V13.01,2013-02-14 04:03:00,
2013-02-13 20:08:00,48.0,34.0,30.50,NE,41,0.0,0.0,58,0.00,,,0.00,VWS V13.01,2013-02-14 04:08:00,
2013-02-13 20:13:00,48.0,34.4,30.50,NE,41,0.0,0.0,59,0.00,,,0.00,VWS V13.01,2013-02-14 04:13:00,
2013-02-13 20:18:00,48.0,34.4,30.50,NE,42,0.0,0.0,59,0.00,,,0.00,VWS V13.01,2013-02-14 04:18:00,
2013-02-13 20:23:00,48.0,34.4,30.50,NE,42,0.0,0.0,59,0.00,,,0.00,VWS V13.01,2013-02-14 04:23:00,
2013-02-13 20:28:00,48.0,34.4,30.50,NE,41,0.0,0.0,59,0.00,,,0.00,VWS V13.01,2013-02-14 04:28:00,
2013-02-13 20:33:00,48.0,34.4,30.50,NE,42,0.0,0.0,59,0.00,,,0.00,VWS V13.01,2013-02-14 04:33:00,
2013-02-13 20:38:00,48.0,34.4,30.50,NE,42,0.0,0.0,59,0.00,,,0.00,VWS V13.01,2013-02-14 04:38:00,
2013-02-13 20:43:00,48.0,34.4,30.50,NE,41,0.0,0.0,59,0.00,,,0.00,VWS V13.01,2013-02-14 04:43:00,
2013-02-13 20:48:00,47.8,34.2,30.50,NE,42,0.0,0.0,59,0.00,,,0.00,VWS V13.01,2013-02-14 04:48:00,
2013-02-13 20:53:00,47.8,34.2,30.50,NE,42,0.0,0.0,59,0.00,,,0.00,VWS V13.01,2013-02-14 04:53:00,
2013-02-13 20:58:00,47.8,34.2,30.50,NE,42,0.0,0.0,59,0.00,,,0.00,VWS V13.01,2013-02-14 04:58:00,
2013-02-13 21:00:00,47.8,34.2,30.50,NE,42,0.0,0.0,59,0.00,,,0.00,VWS V13.01,2013-02-14 05:00:00,
2013-02-13 21:05:00,47.7,34.0,30.50,NE,42,0.0,0.0,59,0.00,,,0.00,VWS V13.01,2013-02-14 05:05:00,
2013-02-13 21:10:00,47.7,34.5,30.50,NE,41,0.0,0.0,60,0.00,,,0.00,VWS V13.01,2013-02-14 05:10:00,
2013-02-13 21:15:00,47.7,34.5,30.50,NE,41,0.0,0.0,60,0.00,,,0.00,VWS V13.01,2013-02-14 05:15:00,
2013-02-13 21:20:00,47.5,34.3,30.50,NE,42,0.0,0.0,60,0.00,,,0.00,VWS V13.01,2013-02-14 05:20:00,
2013-02-13 21:25:00,47.5,34.7,30.50,NE,42,0.0,0.0,61,0.00,,,0.00,VWS V13.01,2013-02-14 05:25:00,
2013-02-13 21:30:00,47.5,34.7,30.50,NE,41,0.0,0.0,61,0.00,,,0.00,VWS V13.01,2013-02-14 05:30:00,
2013-02-13 21:35:00,47.5,34.7,30.53,NE,42,0.0,0.0,61,0.00,,,0.00,VWS V13.01,2013-02-14 05:35:00,
2013-02-13 21:40:00,47.5,34.7,30.53,NE,41,0.0,0.0,61,0.00,,,0.00,VWS V13.01,2013-02-14 05:40:00,
2013-02-13 21:45:00,47.5,34.7,30.53,NE,41,0.0,0.0,61,0.00,,,0.00,VWS V13.01,2013-02-14 05:45:00,
2013-02-13 21:50:00,47.5,35.1,30.53,NE,41,0.0,0.0,62,0.00,,,0.00,VWS V13.01,2013-02-14 05:50:00,
2013-02-13 21:55:00,47.5,35.1,30.53,NE,42,0.0,0.0,62,0.00,,,0.00,VWS V13.01,2013-02-14 05:55:00,
2013-02-13 22:00:00,47.7,35.3,30.53,NE,41,0.0,0.0,62,0.00,,,0.00,VWS V13.01,2013-02-14 06:00:00,
2013-02-13 22:05:00,47.7,36.1,30.53,NE,41,0.0,0.0,64,0.00,,,0.00,VWS V13.01,2013-02-14 06:05:00,
2013-02-13 22:10:00,47.5,36.3,30.53,NE,42,0.0,0.0,65,0.00,,,0.00,VWS V13.01,2013-02-14 06:10:00,
2013-02-13 22:15:00,47.5,36.3,30.53,NE,42,0.0,0.0,65,0.00,,,0.00,VWS V13.01,2013-02-14 06:15:00,
2013-02-13 22:20:00,47.3,36.5,30.53,NE,42,0.0,0.0,66,0.00,,,0.00,VWS V13.01,2013-02-14 06:20:00,
2013-02-13 22:25:00,47.3,36.9,30.53,NE,41,0.0,0.0,67,0.00,,,0.00,VWS V13.01,2013-02-14 06:25:00,
2013-02-13 22:30:00,47.3,36.9,30.53,NE,42,0.0,0.0,67,0.00,,,0.00,VWS V13.01,2013-02-14 06:30:00,
2013-02-13 22:35:00,47.5,38.2,30.53,NE,42,0.0,0.0,70,0.00,,,0.00,VWS V13.01,2013-02-14 06:35:00,
2013-02-13 22:40:00,47.3,38.4,30.53,NE,41,0.0,0.0,71,0.00,,,0.00,VWS V13.01,2013-02-14 06:40:00,
2013-02-13 22:45:00,47.3,38.4,30.53,NE,42,0.0,0.0,71,0.00,,,0.00,VWS V13.01,2013-02-14 06:45:00,
2013-02-13 22:50:00,47.3,38.7,30.53,NE,42,0.0,0.0,72,0.00,,,0.00,VWS V13.01,2013-02-14 06:50:00,
2013-02-13 22:55:00,47.3,38.7,30.53,NE,41,0.0,0.0,72,0.00,,,0.00,VWS V13.01,2013-02-14 06:55:00,
2013-02-13 23:00:00,47.3,38.7,30.53,NE,42,0.0,0.0,72,0.00,,,0.00,VWS V13.01,2013-02-14 07:00:00,
2013-02-13 23:05:00,47.3,38.7,30.53,NE,41,0.0,0.0,72,0.00,,,0.00,VWS V13.01,2013-02-14 07:05:00,
2013-02-13 23:10:00,47.3,38.7,30.53,NE,42,0.0,0.0,72,0.00,,,0.00,VWS V13.01,2013-02-14 07:10:00,
2013-02-13 23:15:00,47.1,38.6,30.53,NE,42,0.0,0.0,72,0.00,,,0.00,VWS V13.01,2013-02-14 07:15:00,
2013-02-13 23:20:00,47.3,39.1,30.53,NE,42,0.0,0.0,73,0.00,,,0.00,VWS V13.01,2013-02-14 07:20:00,
2013-02-13 23:25:00,47.1,38.9,30.53,NE,42,0.0,0.0,73,0.00,,,0.00,VWS V13.01,2013-02-14 07:25:00,
2013-02-13 23:30:00,47.3,39.1,30.53,NE,41,0.0,0.0,73,0.00,,,0.00,VWS V13.01,2013-02-14 07:30:00,
2013-02-13 23:35:00,47.1,39.3,30.53,NE,41,0.0,0.0,74,0.00,,,0.00,VWS V13.01,2013-02-14 07:35:00,
2013-02-13 23:40:00,47.1,39.6,30.53,NE,41,0.0,0.0,75,0.00,,,0.00,VWS V13.01,2013-02-14 07:40:00,
2013-02-13 23:45:00,46.9,39.4,30.53,NE,42,0.0,0.0,75,0.00,,,0.00,VWS V13.01,2013-02-14 07:45:00,
2013-02-13 23:50:00,46.9,39.8,30.53,NE,41,0.0,0.0,76,0.00,,,0.00,VWS V13.01,2013-02-14 07:50:00,
2013-02-13 23:55:00,46.9,40.1,30.53,NE,42,0.0,0.0,77,0.00,,,0.00,VWS V13.01,2013-02-14 07:55:00,